sensor_id;sensor_type;location;lat;lon;timestamp;temperature;humidity
15765;DHT22;7983;50.744;7.086;2022-09-09T00:01:23;19.40;99.90
15765;DHT22;7983;50.744;7.086;2022-09-09T00:04:12;19.40;99.90
15765;DHT22;7983;50.744;7.086;2022-09-09T00:07:07;19.30;99.90
15765;DHT22;7983;50.744;7.086;2022-09-09T00:09:45;19.30;99.90
15765;DHT22;7983;50.744;7.086;2022-09-09T00:12:16;19.30;99.90
15765;DHT22;7983;50.744;7.086;2022-09-09T00:15:02;19.20;99.90
15765;DHT22;7983;50.744;7.086;2022-09-09T00:17:51;19.20;99.90
15765;DHT22;7983;50.744;7.086;2022-09-09T00:20:32;19.20;99.90
15765;DHT22;7983;50.744;7.086;2022-09-09T00:26:14;19.10;99.90
15765;DHT22;7983;50.744;7.086;2022-09-09T00:28:51;19.00;99.90
15765;DHT22;7983;50.744;7.086;2022-09-09T00:31:26;19.00;99.90
15765;DHT22;7983;50.744;7.086;2022-09-09T00:33:56;19.00;99.90
15765;DHT22;7983;50.744;7.086;2022-09-09T00:36:26;19.00;99.90
15765;DHT22;7983;50.744;7.086;2022-09-09T00:39:00;19.00;99.90
15765;DHT22;7983;50.744;7.086;2022-09-09T00:57:53;18.80;99.90
15765;DHT22;7983;50.744;7.086;2022-09-09T01:00:31;18.80;99.90
15765;DHT22;7983;50.744;7.086;2022-09-09T01:03:29;18.70;99.90
15765;DHT22;7983;50.744;7.086;2022-09-09T01:06:11;18.70;99.90
15765;DHT22;7983;50.744;7.086;2022-09-09T01:17:26;18.60;99.90
15765;DHT22;7983;50.744;7.086;2022-09-09T01:25:56;18.60;99.90
15765;DHT22;7983;50.744;7.086;2022-09-09T01:28:19;18.60;99.90
15765;DHT22;7983;50.744;7.086;2022-09-09T01:30:49;18.60;99.90
15765;DHT22;7983;50.744;7.086;2022-09-09T01:33:18;18.60;99.90
15765;DHT22;7983;50.744;7.086;2022-09-09T01:39:20;18.60;99.90
15765;DHT22;7983;50.744;7.086;2022-09-09T01:41:48;18.60;99.90
15765;DHT22;7983;50.744;7.086;2022-09-09T01:44:16;18.60;99.90
15765;DHT22;7983;50.744;7.086;2022-09-09T01:46:43;18.60;99.90
15765;DHT22;7983;50.744;7.086;2022-09-09T01:49:12;18.60;99.90
15765;DHT22;7983;50.744;7.086;2022-09-09T01:51:39;18.60;99.90
15765;DHT22;7983;50.744;7.086;2022-09-09T01:54:07;18.60;99.90
15765;DHT22;7983;50.744;7.086;2022-09-09T01:56:40;18.60;99.90
15765;DHT22;7983;50.744;7.086;2022-09-09T02:04:38;18.70;99.90
15765;DHT22;7983;50.744;7.086;2022-09-09T02:07:11;18.70;99.90
15765;DHT22;7983;50.744;7.086;2022-09-09T02:09:42;18.70;99.90
15765;DHT22;7983;50.744;7.086;2022-09-09T02:12:18;18.70;99.90
15765;DHT22;7983;50.744;7.086;2022-09-09T02:14:56;18.70;99.90
15765;DHT22;7983;50.744;7.086;2022-09-09T02:17:36;18.70;99.90
15765;DHT22;7983;50.744;7.086;2022-09-09T02:20:08;18.70;99.90
15765;DHT22;7983;50.744;7.086;2022-09-09T02:22:37;18.70;99.90
15765;DHT22;7983;50.744;7.086;2022-09-09T02:25:07;18.70;99.90
15765;DHT22;7983;50.744;7.086;2022-09-09T02:27:34;18.70;99.90
15765;DHT22;7983;50.744;7.086;2022-09-09T02:30:03;18.80;99.90
15765;DHT22;7983;50.744;7.086;2022-09-09T02:32:32;18.80;99.90
15765;DHT22;7983;50.744;7.086;2022-09-09T02:35:07;18.80;99.90
15765;DHT22;7983;50.744;7.086;2022-09-09T02:37:37;18.80;99.90
15765;DHT22;7983;50.744;7.086;2022-09-09T02:40:07;18.80;99.90
15765;DHT22;7983;50.744;7.086;2022-09-09T02:42:42;18.80;99.90
15765;DHT22;7983;50.744;7.086;2022-09-09T02:45:10;18.90;99.90
15765;DHT22;7983;50.744;7.086;2022-09-09T02:50:33;18.90;99.90
15765;DHT22;7983;50.744;7.086;2022-09-09T02:55:41;18.90;99.90
15765;DHT22;7983;50.744;7.086;2022-09-09T02:58:10;18.90;99.90
15765;DHT22;7983;50.744;7.086;2022-09-09T03:00:38;18.90;99.90
15765;DHT22;7983;50.744;7.086;2022-09-09T03:03:07;18.90;99.90
15765;DHT22;7983;50.744;7.086;2022-09-09T03:05:37;18.90;99.90
15765;DHT22;7983;50.744;7.086;2022-09-09T03:08:04;18.90;99.90
15765;DHT22;7983;50.744;7.086;2022-09-09T03:10:31;18.90;99.90
15765;DHT22;7983;50.744;7.086;2022-09-09T03:12:59;19.00;99.90
15765;DHT22;7983;50.744;7.086;2022-09-09T03:15:25;19.00;99.90
15765;DHT22;7983;50.744;7.086;2022-09-09T03:17:54;19.00;99.90
15765;DHT22;7983;50.744;7.086;2022-09-09T03:20:20;19.00;99.90
15765;DHT22;7983;50.744;7.086;2022-09-09T03:22:46;19.00;99.90
15765;DHT22;7983;50.744;7.086;2022-09-09T03:25:14;19.00;99.90
15765;DHT22;7983;50.744;7.086;2022-09-09T03:27:40;19.00;99.90
15765;DHT22;7983;50.744;7.086;2022-09-09T03:30:06;18.90;99.90
15765;DHT22;7983;50.744;7.086;2022-09-09T03:32:34;18.90;99.90
15765;DHT22;7983;50.744;7.086;2022-09-09T03:35:00;18.90;99.90
15765;DHT22;7983;50.744;7.086;2022-09-09T03:37:26;18.90;99.90
15765;DHT22;7983;50.744;7.086;2022-09-09T03:39:52;18.90;99.90
15765;DHT22;7983;50.744;7.086;2022-09-09T03:42:20;18.90;99.90
15765;DHT22;7983;50.744;7.086;2022-09-09T03:44:50;18.90;99.90
15765;DHT22;7983;50.744;7.086;2022-09-09T03:47:21;18.90;99.90
15765;DHT22;7983;50.744;7.086;2022-09-09T03:49:49;18.80;99.90
15765;DHT22;7983;50.744;7.086;2022-09-09T03:52:15;18.80;99.90
15765;DHT22;7983;50.744;7.086;2022-09-09T03:54:41;18.80;99.90
15765;DHT22;7983;50.744;7.086;2022-09-09T03:57:08;18.80;99.90
15765;DHT22;7983;50.744;7.086;2022-09-09T03:59:39;18.70;99.90
15765;DHT22;7983;50.744;7.086;2022-09-09T04:02:07;18.70;99.90
15765;DHT22;7983;50.744;7.086;2022-09-09T04:04:35;18.70;99.90
15765;DHT22;7983;50.744;7.086;2022-09-09T04:07:03;18.70;99.90
15765;DHT22;7983;50.744;7.086;2022-09-09T04:09:32;18.70;99.90
15765;DHT22;7983;50.744;7.086;2022-09-09T04:12:00;18.70;99.90
15765;DHT22;7983;50.744;7.086;2022-09-09T04:14:25;18.80;99.90
15765;DHT22;7983;50.744;7.086;2022-09-09T04:16:54;18.80;99.90
15765;DHT22;7983;50.744;7.086;2022-09-09T04:19:20;18.80;99.90
15765;DHT22;7983;50.744;7.086;2022-09-09T04:21:48;18.80;99.90
15765;DHT22;7983;50.744;7.086;2022-09-09T04:24:17;18.80;99.90
15765;DHT22;7983;50.744;7.086;2022-09-09T04:26:46;18.80;99.90
15765;DHT22;7983;50.744;7.086;2022-09-09T04:29:12;18.80;99.90
15765;DHT22;7983;50.744;7.086;2022-09-09T04:31:38;18.90;99.90
15765;DHT22;7983;50.744;7.086;2022-09-09T04:34:11;18.90;99.90
15765;DHT22;7983;50.744;7.086;2022-09-09T04:36:37;18.90;99.90
15765;DHT22;7983;50.744;7.086;2022-09-09T04:39:04;18.90;99.90
15765;DHT22;7983;50.744;7.086;2022-09-09T04:41:30;18.90;99.90
15765;DHT22;7983;50.744;7.086;2022-09-09T04:44:01;18.90;99.90
15765;DHT22;7983;50.744;7.086;2022-09-09T04:46:27;18.90;99.90
15765;DHT22;7983;50.744;7.086;2022-09-09T04:48:54;18.90;99.90
15765;DHT22;7983;50.744;7.086;2022-09-09T04:51:20;18.90;99.90
15765;DHT22;7983;50.744;7.086;2022-09-09T04:53:50;18.90;99.90
15765;DHT22;7983;50.744;7.086;2022-09-09T04:56:19;18.90;99.90
15765;DHT22;7983;50.744;7.086;2022-09-09T04:58:45;18.90;99.90
15765;DHT22;7983;50.744;7.086;2022-09-09T05:01:14;18.90;99.90
15765;DHT22;7983;50.744;7.086;2022-09-09T05:03:40;18.90;99.90
15765;DHT22;7983;50.744;7.086;2022-09-09T05:06:15;18.90;99.90
15765;DHT22;7983;50.744;7.086;2022-09-09T05:08:44;18.90;99.90
15765;DHT22;7983;50.744;7.086;2022-09-09T05:11:25;18.90;99.90
15765;DHT22;7983;50.744;7.086;2022-09-09T05:13:52;18.90;99.90
15765;DHT22;7983;50.744;7.086;2022-09-09T05:16:19;18.90;99.90
15765;DHT22;7983;50.744;7.086;2022-09-09T05:18:53;18.90;99.90
15765;DHT22;7983;50.744;7.086;2022-09-09T05:21:20;18.80;99.90
15765;DHT22;7983;50.744;7.086;2022-09-09T05:23:49;18.80;99.90
15765;DHT22;7983;50.744;7.086;2022-09-09T05:26:19;18.80;99.90
15765;DHT22;7983;50.744;7.086;2022-09-09T05:28:48;18.90;99.90
15765;DHT22;7983;50.744;7.086;2022-09-09T05:31:16;18.80;99.90
15765;DHT22;7983;50.744;7.086;2022-09-09T05:33:44;18.80;99.90
15765;DHT22;7983;50.744;7.086;2022-09-09T05:36:18;18.80;99.90
15765;DHT22;7983;50.744;7.086;2022-09-09T05:38:50;18.80;99.90
15765;DHT22;7983;50.744;7.086;2022-09-09T05:41:19;18.90;99.90
15765;DHT22;7983;50.744;7.086;2022-09-09T05:43:46;18.80;99.90
15765;DHT22;7983;50.744;7.086;2022-09-09T05:46:19;18.80;99.90
15765;DHT22;7983;50.744;7.086;2022-09-09T05:48:49;18.80;99.90
15765;DHT22;7983;50.744;7.086;2022-09-09T05:51:28;18.90;99.90
15765;DHT22;7983;50.744;7.086;2022-09-09T05:53:57;18.90;99.90
15765;DHT22;7983;50.744;7.086;2022-09-09T05:56:37;18.90;99.90
15765;DHT22;7983;50.744;7.086;2022-09-09T05:59:10;18.90;99.90
15765;DHT22;7983;50.744;7.086;2022-09-09T06:01:38;18.90;99.90
15765;DHT22;7983;50.744;7.086;2022-09-09T06:04:10;18.90;99.90
15765;DHT22;7983;50.744;7.086;2022-09-09T06:06:39;19.00;99.90
15765;DHT22;7983;50.744;7.086;2022-09-09T06:09:06;19.00;99.90
15765;DHT22;7983;50.744;7.086;2022-09-09T06:11:36;19.00;99.90
15765;DHT22;7983;50.744;7.086;2022-09-09T06:14:02;19.00;99.90
15765;DHT22;7983;50.744;7.086;2022-09-09T06:16:29;19.00;99.90
15765;DHT22;7983;50.744;7.086;2022-09-09T06:18:56;19.10;99.90
15765;DHT22;7983;50.744;7.086;2022-09-09T06:21:33;19.10;99.90
15765;DHT22;7983;50.744;7.086;2022-09-09T06:23:59;19.10;99.90
15765;DHT22;7983;50.744;7.086;2022-09-09T06:26:30;19.20;99.90
15765;DHT22;7983;50.744;7.086;2022-09-09T06:28:56;19.20;99.90
15765;DHT22;7983;50.744;7.086;2022-09-09T06:31:27;19.20;99.90
15765;DHT22;7983;50.744;7.086;2022-09-09T06:33:56;19.20;99.90
15765;DHT22;7983;50.744;7.086;2022-09-09T06:36:23;19.20;99.90
15765;DHT22;7983;50.744;7.086;2022-09-09T06:38:49;19.20;99.90
15765;DHT22;7983;50.744;7.086;2022-09-09T06:41:17;19.20;99.90
15765;DHT22;7983;50.744;7.086;2022-09-09T06:43:46;19.30;99.90
15765;DHT22;7983;50.744;7.086;2022-09-09T06:46:14;19.30;99.90
15765;DHT22;7983;50.744;7.086;2022-09-09T06:48:41;19.30;99.90
15765;DHT22;7983;50.744;7.086;2022-09-09T06:51:20;19.30;99.90
15765;DHT22;7983;50.744;7.086;2022-09-09T06:53:57;19.30;99.90
15765;DHT22;7983;50.744;7.086;2022-09-09T06:56:30;19.30;99.90
15765;DHT22;7983;50.744;7.086;2022-09-09T06:59:03;19.30;99.90
15765;DHT22;7983;50.744;7.086;2022-09-09T07:01:32;19.30;99.90
15765;DHT22;7983;50.744;7.086;2022-09-09T07:03:59;19.30;99.90
15765;DHT22;7983;50.744;7.086;2022-09-09T07:06:27;19.30;99.90
15765;DHT22;7983;50.744;7.086;2022-09-09T07:08:57;19.30;99.90
15765;DHT22;7983;50.744;7.086;2022-09-09T07:11:31;19.40;99.90
15765;DHT22;7983;50.744;7.086;2022-09-09T07:13:58;19.40;99.90
15765;DHT22;7983;50.744;7.086;2022-09-09T07:16:25;19.50;99.90
15765;DHT22;7983;50.744;7.086;2022-09-09T07:19:00;19.50;99.90
15765;DHT22;7983;50.744;7.086;2022-09-09T07:21:29;19.60;99.90
15765;DHT22;7983;50.744;7.086;2022-09-09T07:23:58;19.60;99.90
15765;DHT22;7983;50.744;7.086;2022-09-09T07:26:25;19.70;99.90
15765;DHT22;7983;50.744;7.086;2022-09-09T07:28:52;19.70;99.90
15765;DHT22;7983;50.744;7.086;2022-09-09T07:31:21;19.80;99.90
15765;DHT22;7983;50.744;7.086;2022-09-09T07:33:48;19.80;99.90
15765;DHT22;7983;50.744;7.086;2022-09-09T07:36:19;19.90;99.90
15765;DHT22;7983;50.744;7.086;2022-09-09T07:38:52;19.90;99.90
15765;DHT22;7983;50.744;7.086;2022-09-09T07:41:25;20.00;99.90
15765;DHT22;7983;50.744;7.086;2022-09-09T07:43:52;20.10;99.90
15765;DHT22;7983;50.744;7.086;2022-09-09T07:46:20;20.10;99.90
15765;DHT22;7983;50.744;7.086;2022-09-09T07:48:50;20.10;99.90
15765;DHT22;7983;50.744;7.086;2022-09-09T07:51:20;20.20;99.90
15765;DHT22;7983;50.744;7.086;2022-09-09T07:53:50;20.20;99.90
15765;DHT22;7983;50.744;7.086;2022-09-09T07:56:17;20.30;99.90
15765;DHT22;7983;50.744;7.086;2022-09-09T07:58:47;20.30;99.90
15765;DHT22;7983;50.744;7.086;2022-09-09T08:01:18;20.30;99.90
15765;DHT22;7983;50.744;7.086;2022-09-09T08:03:45;20.30;99.90
15765;DHT22;7983;50.744;7.086;2022-09-09T08:06:14;20.30;99.90
15765;DHT22;7983;50.744;7.086;2022-09-09T08:08:40;20.30;99.90
15765;DHT22;7983;50.744;7.086;2022-09-09T08:11:16;20.30;99.90
15765;DHT22;7983;50.744;7.086;2022-09-09T08:13:43;20.30;99.90
15765;DHT22;7983;50.744;7.086;2022-09-09T08:16:17;20.30;99.90
15765;DHT22;7983;50.744;7.086;2022-09-09T08:18:47;20.30;99.90
15765;DHT22;7983;50.744;7.086;2022-09-09T08:21:18;20.30;99.90
15765;DHT22;7983;50.744;7.086;2022-09-09T08:23:47;20.40;99.90
15765;DHT22;7983;50.744;7.086;2022-09-09T08:26:19;20.50;99.90
15765;DHT22;7983;50.744;7.086;2022-09-09T08:28:47;20.50;99.90
15765;DHT22;7983;50.744;7.086;2022-09-09T08:31:18;20.60;99.90
15765;DHT22;7983;50.744;7.086;2022-09-09T08:33:44;20.60;99.90
15765;DHT22;7983;50.744;7.086;2022-09-09T08:36:19;20.70;99.90
15765;DHT22;7983;50.744;7.086;2022-09-09T08:38:51;20.70;99.90
15765;DHT22;7983;50.744;7.086;2022-09-09T08:55:43;21.10;99.90
15765;DHT22;7983;50.744;7.086;2022-09-09T09:06:20;21.30;99.90
15765;DHT22;7983;50.744;7.086;2022-09-09T09:14:25;21.70;99.90
15765;DHT22;7983;50.744;7.086;2022-09-09T09:17:00;21.80;99.90
15765;DHT22;7983;50.744;7.086;2022-09-09T09:19:28;21.80;99.90
15765;DHT22;7983;50.744;7.086;2022-09-09T09:22:16;21.80;99.90
15765;DHT22;7983;50.744;7.086;2022-09-09T09:24:55;21.80;99.90
15765;DHT22;7983;50.744;7.086;2022-09-09T09:30:00;21.80;99.90
15765;DHT22;7983;50.744;7.086;2022-09-09T09:32:30;21.80;99.90
15765;DHT22;7983;50.744;7.086;2022-09-09T09:34:57;21.90;99.90
15765;DHT22;7983;50.744;7.086;2022-09-09T09:37:29;21.80;99.90
15765;DHT22;7983;50.744;7.086;2022-09-09T09:39:56;21.90;99.90
15765;DHT22;7983;50.744;7.086;2022-09-09T09:42:25;21.90;99.90
15765;DHT22;7983;50.744;7.086;2022-09-09T09:44:53;21.90;99.90
15765;DHT22;7983;50.744;7.086;2022-09-09T09:47:21;21.90;99.90
15765;DHT22;7983;50.744;7.086;2022-09-09T09:49:59;21.90;99.90
15765;DHT22;7983;50.744;7.086;2022-09-09T09:52:31;22.00;99.90
15765;DHT22;7983;50.744;7.086;2022-09-09T09:55:03;22.00;99.90
15765;DHT22;7983;50.744;7.086;2022-09-09T09:57:31;22.00;99.90
15765;DHT22;7983;50.744;7.086;2022-09-09T10:00:29;22.10;99.90
15765;DHT22;7983;50.744;7.086;2022-09-09T10:02:54;22.40;99.90
15765;DHT22;7983;50.744;7.086;2022-09-09T10:05:24;22.60;99.90
15765;DHT22;7983;50.744;7.086;2022-09-09T10:08:20;22.90;99.90
15765;DHT22;7983;50.744;7.086;2022-09-09T10:24:30;23.20;99.90
15765;DHT22;7983;50.744;7.086;2022-09-09T10:36:12;22.50;99.90
15765;DHT22;7983;50.744;7.086;2022-09-09T10:38:42;22.40;99.90
15765;DHT22;7983;50.744;7.086;2022-09-09T10:55:17;22.20;99.90
15765;DHT22;7983;50.744;7.086;2022-09-09T10:57:49;22.20;99.90
15765;DHT22;7983;50.744;7.086;2022-09-09T11:03:00;22.30;99.90
15765;DHT22;7983;50.744;7.086;2022-09-09T11:05:43;22.40;99.90
15765;DHT22;7983;50.744;7.086;2022-09-09T11:08:25;22.40;99.90
15765;DHT22;7983;50.744;7.086;2022-09-09T11:16:38;22.90;99.90
15765;DHT22;7983;50.744;7.086;2022-09-09T11:21:52;23.10;99.90
15765;DHT22;7983;50.744;7.086;2022-09-09T11:26:57;23.30;99.90
15765;DHT22;7983;50.744;7.086;2022-09-09T11:38:29;23.80;99.90
15765;DHT22;7983;50.744;7.086;2022-09-09T11:41:05;23.70;99.90
15765;DHT22;7983;50.744;7.086;2022-09-09T11:43:39;23.70;99.90
15765;DHT22;7983;50.744;7.086;2022-09-09T11:46:05;23.60;99.90
15765;DHT22;7983;50.744;7.086;2022-09-09T11:51:09;23.60;99.90
15765;DHT22;7983;50.744;7.086;2022-09-09T11:53:47;23.60;99.90
15765;DHT22;7983;50.744;7.086;2022-09-09T11:59:19;23.60;99.90
15765;DHT22;7983;50.744;7.086;2022-09-09T12:05:09;23.60;99.90
15765;DHT22;7983;50.744;7.086;2022-09-09T12:07:45;23.50;99.90
15765;DHT22;7983;50.744;7.086;2022-09-09T12:10:35;23.60;99.90
15765;DHT22;7983;50.744;7.086;2022-09-09T12:13:21;23.50;99.90
15765;DHT22;7983;50.744;7.086;2022-09-09T12:15:50;23.60;99.90
15765;DHT22;7983;50.744;7.086;2022-09-09T12:18:25;23.60;99.90
15765;DHT22;7983;50.744;7.086;2022-09-09T12:23:52;23.50;99.90
15765;DHT22;7983;50.744;7.086;2022-09-09T12:31:46;23.40;99.90
15765;DHT22;7983;50.744;7.086;2022-09-09T12:34:41;23.40;99.90
15765;DHT22;7983;50.744;7.086;2022-09-09T12:37:37;23.30;99.90
15765;DHT22;7983;50.744;7.086;2022-09-09T12:40:27;23.30;99.90
15765;DHT22;7983;50.744;7.086;2022-09-09T12:42:53;23.30;99.90
15765;DHT22;7983;50.744;7.086;2022-09-09T12:45:28;23.20;99.90
15765;DHT22;7983;50.744;7.086;2022-09-09T12:50:31;23.20;99.90
15765;DHT22;7983;50.744;7.086;2022-09-09T12:55:53;23.20;99.90
15765;DHT22;7983;50.744;7.086;2022-09-09T12:58:20;23.20;99.90
15765;DHT22;7983;50.744;7.086;2022-09-09T13:00:53;23.20;99.90
15765;DHT22;7983;50.744;7.086;2022-09-09T13:03:21;23.20;99.90
15765;DHT22;7983;50.744;7.086;2022-09-09T13:05:48;23.10;99.90
15765;DHT22;7983;50.744;7.086;2022-09-09T13:08:15;23.00;99.90
15765;DHT22;7983;50.744;7.086;2022-09-09T13:11:01;23.00;99.90
15765;DHT22;7983;50.744;7.086;2022-09-09T13:13:52;22.90;99.90
15765;DHT22;7983;50.744;7.086;2022-09-09T13:16:28;22.90;99.90
15765;DHT22;7983;50.744;7.086;2022-09-09T13:18:58;22.90;99.90
15765;DHT22;7983;50.744;7.086;2022-09-09T13:21:38;22.90;99.90
15765;DHT22;7983;50.744;7.086;2022-09-09T13:24:32;22.90;99.90
15765;DHT22;7983;50.744;7.086;2022-09-09T13:27:04;22.90;99.90
15765;DHT22;7983;50.744;7.086;2022-09-09T13:29:32;22.90;99.90
15765;DHT22;7983;50.744;7.086;2022-09-09T13:32:18;22.80;99.90
15765;DHT22;7983;50.744;7.086;2022-09-09T13:34:56;22.70;99.90
15765;DHT22;7983;50.744;7.086;2022-09-09T13:39:52;22.90;99.90
15765;DHT22;7983;50.744;7.086;2022-09-09T13:42:29;23.00;99.90
15765;DHT22;7983;50.744;7.086;2022-09-09T13:44:58;23.20;99.90
15765;DHT22;7983;50.744;7.086;2022-09-09T13:47:35;23.40;99.90
15765;DHT22;7983;50.744;7.086;2022-09-09T13:52:58;23.60;99.90
15765;DHT22;7983;50.744;7.086;2022-09-09T13:55:29;23.60;99.90
15765;DHT22;7983;50.744;7.086;2022-09-09T13:58:00;23.60;99.90
15765;DHT22;7983;50.744;7.086;2022-09-09T14:00:29;23.60;99.90
15765;DHT22;7983;50.744;7.086;2022-09-09T14:02:55;23.50;99.90
15765;DHT22;7983;50.744;7.086;2022-09-09T14:05:23;23.50;99.90
15765;DHT22;7983;50.744;7.086;2022-09-09T14:07:49;23.50;99.90
15765;DHT22;7983;50.744;7.086;2022-09-09T14:10:23;23.60;99.90
15765;DHT22;7983;50.744;7.086;2022-09-09T14:12:51;23.60;99.90
15765;DHT22;7983;50.744;7.086;2022-09-09T14:15:29;23.70;99.90
15765;DHT22;7983;50.744;7.086;2022-09-09T14:17:57;23.60;99.90
15765;DHT22;7983;50.744;7.086;2022-09-09T14:20:26;23.60;99.90
15765;DHT22;7983;50.744;7.086;2022-09-09T14:22:52;23.50;99.90
15765;DHT22;7983;50.744;7.086;2022-09-09T14:25:19;23.40;99.90
15765;DHT22;7983;50.744;7.086;2022-09-09T14:27:45;23.50;99.90
15765;DHT22;7983;50.744;7.086;2022-09-09T14:30:14;23.60;99.90
15765;DHT22;7983;50.744;7.086;2022-09-09T14:32:40;23.80;99.90
15765;DHT22;7983;50.744;7.086;2022-09-09T14:35:08;23.90;99.90
15765;DHT22;7983;50.744;7.086;2022-09-09T14:37:34;24.00;99.90
15765;DHT22;7983;50.744;7.086;2022-09-09T14:40:00;24.10;99.90
15765;DHT22;7983;50.744;7.086;2022-09-09T14:42:28;24.00;99.90
15765;DHT22;7983;50.744;7.086;2022-09-09T14:44:55;24.00;99.90
15765;DHT22;7983;50.744;7.086;2022-09-09T14:47:23;24.00;99.90
15765;DHT22;7983;50.744;7.086;2022-09-09T14:49:49;24.00;99.90
15765;DHT22;7983;50.744;7.086;2022-09-09T14:52:17;24.10;99.90
15765;DHT22;7983;50.744;7.086;2022-09-09T14:54:48;24.20;99.90
15765;DHT22;7983;50.744;7.086;2022-09-09T14:57:14;24.30;99.90
15765;DHT22;7983;50.744;7.086;2022-09-09T14:59:42;24.30;99.90
15765;DHT22;7983;50.744;7.086;2022-09-09T15:02:08;24.30;99.90
15765;DHT22;7983;50.744;7.086;2022-09-09T15:04:37;24.30;99.90
15765;DHT22;7983;50.744;7.086;2022-09-09T15:07:02;24.20;99.90
15765;DHT22;7983;50.744;7.086;2022-09-09T15:09:28;24.10;99.90
15765;DHT22;7983;50.744;7.086;2022-09-09T15:11:54;23.90;99.90
15765;DHT22;7983;50.744;7.086;2022-09-09T15:14:20;23.80;99.90
15765;DHT22;7983;50.744;7.086;2022-09-09T15:16:48;23.70;99.90
15765;DHT22;7983;50.744;7.086;2022-09-09T15:19:13;23.60;99.90
15765;DHT22;7983;50.744;7.086;2022-09-09T15:21:39;23.50;99.90
15765;DHT22;7983;50.744;7.086;2022-09-09T15:24:05;23.40;99.90
15765;DHT22;7983;50.744;7.086;2022-09-09T15:26:34;23.30;99.90
15765;DHT22;7983;50.744;7.086;2022-09-09T15:29:00;23.20;99.90
15765;DHT22;7983;50.744;7.086;2022-09-09T15:31:31;23.20;99.90
15765;DHT22;7983;50.744;7.086;2022-09-09T15:34:06;23.00;99.90
15765;DHT22;7983;50.744;7.086;2022-09-09T15:36:42;23.00;99.90
15765;DHT22;7983;50.744;7.086;2022-09-09T15:39:14;22.90;99.90
15765;DHT22;7983;50.744;7.086;2022-09-09T15:41:45;22.80;99.90
15765;DHT22;7983;50.744;7.086;2022-09-09T15:44:12;22.70;99.90
15765;DHT22;7983;50.744;7.086;2022-09-09T15:47:04;22.60;99.90
15765;DHT22;7983;50.744;7.086;2022-09-09T15:49:30;22.50;99.90
15765;DHT22;7983;50.744;7.086;2022-09-09T15:51:57;22.40;99.90
15765;DHT22;7983;50.744;7.086;2022-09-09T15:54:26;22.30;99.90
15765;DHT22;7983;50.744;7.086;2022-09-09T15:56:57;22.20;99.90
15765;DHT22;7983;50.744;7.086;2022-09-09T15:59:26;22.10;99.90
15765;DHT22;7983;50.744;7.086;2022-09-09T16:01:56;22.00;99.90
15765;DHT22;7983;50.744;7.086;2022-09-09T16:04:23;22.00;99.90
15765;DHT22;7983;50.744;7.086;2022-09-09T16:07:03;21.90;99.90
15765;DHT22;7983;50.744;7.086;2022-09-09T16:09:32;21.90;99.90
15765;DHT22;7983;50.744;7.086;2022-09-09T16:11:59;21.80;99.90
15765;DHT22;7983;50.744;7.086;2022-09-09T16:14:33;21.80;99.90
15765;DHT22;7983;50.744;7.086;2022-09-09T16:17:01;21.80;99.90
15765;DHT22;7983;50.744;7.086;2022-09-09T16:19:28;21.70;99.90
15765;DHT22;7983;50.744;7.086;2022-09-09T16:21:55;21.60;99.90
15765;DHT22;7983;50.744;7.086;2022-09-09T16:24:23;21.60;99.90
15765;DHT22;7983;50.744;7.086;2022-09-09T16:26:54;21.50;99.90
15765;DHT22;7983;50.744;7.086;2022-09-09T16:29:22;21.50;99.90
15765;DHT22;7983;50.744;7.086;2022-09-09T16:31:51;21.50;99.90
15765;DHT22;7983;50.744;7.086;2022-09-09T16:34:17;21.40;99.90
15765;DHT22;7983;50.744;7.086;2022-09-09T16:36:47;21.50;99.90
15765;DHT22;7983;50.744;7.086;2022-09-09T16:39:15;21.40;99.90
15765;DHT22;7983;50.744;7.086;2022-09-09T16:41:45;21.40;99.90
15765;DHT22;7983;50.744;7.086;2022-09-09T16:44:16;21.40;99.90
15765;DHT22;7983;50.744;7.086;2022-09-09T16:46:44;21.40;99.90
15765;DHT22;7983;50.744;7.086;2022-09-09T16:49:12;21.30;99.90
15765;DHT22;7983;50.744;7.086;2022-09-09T16:51:42;21.10;99.90
15765;DHT22;7983;50.744;7.086;2022-09-09T16:54:12;20.90;99.90
15765;DHT22;7983;50.744;7.086;2022-09-09T16:56:40;20.70;99.90
15765;DHT22;7983;50.744;7.086;2022-09-09T16:59:13;20.60;99.90
15765;DHT22;7983;50.744;7.086;2022-09-09T17:01:40;20.40;99.90
15765;DHT22;7983;50.744;7.086;2022-09-09T17:04:11;20.40;99.90
15765;DHT22;7983;50.744;7.086;2022-09-09T17:06:41;20.30;99.90
15765;DHT22;7983;50.744;7.086;2022-09-09T17:09:11;20.30;99.90
15765;DHT22;7983;50.744;7.086;2022-09-09T17:11:40;20.20;99.90
15765;DHT22;7983;50.744;7.086;2022-09-09T17:14:08;20.20;99.90
15765;DHT22;7983;50.744;7.086;2022-09-09T17:16:35;20.20;99.90
15765;DHT22;7983;50.744;7.086;2022-09-09T17:19:04;20.10;99.90
15765;DHT22;7983;50.744;7.086;2022-09-09T17:21:30;20.10;99.90
15765;DHT22;7983;50.744;7.086;2022-09-09T17:23:56;20.20;99.90
15765;DHT22;7983;50.744;7.086;2022-09-09T17:26:26;20.10;99.90
15765;DHT22;7983;50.744;7.086;2022-09-09T17:28:55;20.10;99.90
15765;DHT22;7983;50.744;7.086;2022-09-09T17:31:24;20.10;99.90
15765;DHT22;7983;50.744;7.086;2022-09-09T17:33:50;20.10;99.90
15765;DHT22;7983;50.744;7.086;2022-09-09T17:36:22;20.00;99.90
15765;DHT22;7983;50.744;7.086;2022-09-09T17:38:48;20.00;99.90
15765;DHT22;7983;50.744;7.086;2022-09-09T17:41:21;20.00;99.90
15765;DHT22;7983;50.744;7.086;2022-09-09T17:43:47;19.90;99.90
15765;DHT22;7983;50.744;7.086;2022-09-09T17:46:24;19.90;99.90
15765;DHT22;7983;50.744;7.086;2022-09-09T17:48:52;19.90;99.90
15765;DHT22;7983;50.744;7.086;2022-09-09T17:51:22;19.90;99.90
15765;DHT22;7983;50.744;7.086;2022-09-09T17:53:51;19.90;99.90
15765;DHT22;7983;50.744;7.086;2022-09-09T17:56:19;19.80;99.90
15765;DHT22;7983;50.744;7.086;2022-09-09T17:58:46;19.80;99.90
15765;DHT22;7983;50.744;7.086;2022-09-09T18:01:20;19.80;99.90
15765;DHT22;7983;50.744;7.086;2022-09-09T18:03:49;19.80;99.90
15765;DHT22;7983;50.744;7.086;2022-09-09T18:06:23;19.70;99.90
15765;DHT22;7983;50.744;7.086;2022-09-09T18:08:55;19.70;99.90
15765;DHT22;7983;50.744;7.086;2022-09-09T18:11:24;19.70;99.90
15765;DHT22;7983;50.744;7.086;2022-09-09T18:13:56;19.70;99.90
15765;DHT22;7983;50.744;7.086;2022-09-09T18:16:23;19.70;99.90
15765;DHT22;7983;50.744;7.086;2022-09-09T18:18:51;19.70;99.90
15765;DHT22;7983;50.744;7.086;2022-09-09T18:21:18;19.70;99.90
15765;DHT22;7983;50.744;7.086;2022-09-09T18:23:45;19.70;99.90
15765;DHT22;7983;50.744;7.086;2022-09-09T18:26:16;19.70;99.90
15765;DHT22;7983;50.744;7.086;2022-09-09T18:28:46;19.70;99.90
15765;DHT22;7983;50.744;7.086;2022-09-09T18:31:15;19.70;99.90
15765;DHT22;7983;50.744;7.086;2022-09-09T18:33:44;19.60;99.90
15765;DHT22;7983;50.744;7.086;2022-09-09T18:36:12;19.60;99.90
15765;DHT22;7983;50.744;7.086;2022-09-09T18:38:39;19.60;99.90
15765;DHT22;7983;50.744;7.086;2022-09-09T18:41:25;19.60;99.90
15765;DHT22;7983;50.744;7.086;2022-09-09T18:43:52;19.60;99.90
15765;DHT22;7983;50.744;7.086;2022-09-09T18:46:20;19.60;99.90
15765;DHT22;7983;50.744;7.086;2022-09-09T18:48:47;19.50;99.90
15765;DHT22;7983;50.744;7.086;2022-09-09T18:51:17;19.50;99.90
15765;DHT22;7983;50.744;7.086;2022-09-09T18:53:48;19.40;99.90